createdAt,value
2022-08-20T00:00:30.555Z,52.20
2022-08-20T00:03:00.169Z,52.20
2022-08-20T00:05:31.601Z,52.30
2022-08-20T00:08:00.436Z,52.20
2022-08-20T00:10:28.941Z,52.30
2022-08-20T00:12:57.103Z,52.30
2022-08-20T00:15:28.440Z,52.30
2022-08-20T00:17:56.763Z,52.30
2022-08-20T00:20:29.429Z,52.30
2022-08-20T00:22:58.934Z,52.30
2022-08-20T00:25:28.395Z,52.30
2022-08-20T00:27:56.490Z,52.40
2022-08-20T00:30:24.939Z,52.30
2022-08-20T00:32:54.378Z,52.40
2022-08-20T00:35:24.408Z,52.40
2022-08-20T00:37:52.454Z,52.40
2022-08-20T00:40:24.548Z,52.40
2022-08-20T00:42:53.791Z,52.40
2022-08-20T00:45:22.104Z,52.50
2022-08-20T00:47:51.454Z,52.50
2022-08-20T00:50:22.030Z,52.50
2022-08-20T00:52:51.985Z,52.60
2022-08-20T00:55:22.083Z,52.60
2022-08-20T00:58:00.827Z,52.60
2022-08-20T01:00:32.582Z,52.80
2022-08-20T01:03:01.568Z,52.80
2022-08-20T01:05:30.057Z,52.70
2022-08-20T01:07:58.667Z,52.80
2022-08-20T01:10:29.860Z,53.40
2022-08-20T01:12:59.760Z,52.80
2022-08-20T01:15:31.206Z,52.80
2022-08-20T01:17:59.844Z,52.80
2022-08-20T01:20:29.674Z,52.80
2022-08-20T01:23:20.907Z,52.80
2022-08-20T01:25:53.158Z,52.80
2022-08-20T01:28:22.832Z,52.80
2022-08-20T01:30:50.768Z,52.90
2022-08-20T01:33:18.884Z,52.80
2022-08-20T01:35:46.875Z,52.90
2022-08-20T01:38:14.967Z,52.90
2022-08-20T01:41:16.107Z,52.90
2022-08-20T01:43:46.499Z,52.90
2022-08-20T01:46:17.235Z,52.90
2022-08-20T01:48:49.887Z,52.80
2022-08-20T01:51:20.234Z,52.80
2022-08-20T01:53:49.497Z,52.80
2022-08-20T01:56:18.737Z,52.60
2022-08-20T01:58:55.949Z,52.50
2022-08-20T02:01:26.202Z,52.50
2022-08-20T02:03:54.953Z,52.40
2022-08-20T02:06:25.529Z,52.30
2022-08-20T02:08:55.180Z,52.20
2022-08-20T02:11:23.417Z,52.10
2022-08-20T02:13:53.344Z,52.00
2022-08-20T02:16:22.760Z,51.90
2022-08-20T02:18:54.212Z,51.70
2022-08-20T02:21:22.605Z,51.70
2022-08-20T02:23:50.616Z,51.60
2022-08-20T02:26:19.290Z,51.50
2022-08-20T02:28:49.742Z,51.50
2022-08-20T02:31:19.181Z,51.40
2022-08-20T02:34:22.284Z,51.30
2022-08-20T02:36:36.395Z,51.30
2022-08-20T02:39:05.430Z,51.20
2022-08-20T02:41:35.837Z,51.20
2022-08-20T02:44:04.856Z,51.10
2022-08-20T02:46:34.514Z,51.10
2022-08-20T02:49:02.497Z,51.00
2022-08-20T02:51:30.799Z,51.00
2022-08-20T02:53:59.135Z,50.90
2022-08-20T02:56:27.379Z,50.80
2022-08-20T02:58:55.425Z,50.80
2022-08-20T03:01:23.636Z,50.80
2022-08-20T03:03:52.972Z,50.80
2022-08-20T03:06:22.064Z,50.70
2022-08-20T03:08:50.013Z,50.80
2022-08-20T03:11:18.167Z,50.70
2022-08-20T03:13:46.119Z,50.70
2022-08-20T03:16:14.107Z,50.70
2022-08-20T03:18:45.197Z,50.70
2022-08-20T03:21:14.734Z,50.70
2022-08-20T03:23:43.051Z,50.70
2022-08-20T03:26:12.134Z,50.70
2022-08-20T03:28:40.113Z,50.70
2022-08-20T03:31:08.371Z,50.70
2022-08-20T03:33:39.371Z,50.70
2022-08-20T03:36:27.675Z,50.70
2022-08-20T03:38:57.476Z,50.70
2022-08-20T03:41:25.494Z,50.70
2022-08-20T03:43:54.566Z,50.70
2022-08-20T03:46:24.145Z,50.70
2022-08-20T03:48:56.330Z,50.80
2022-08-20T03:51:30.647Z,50.80
2022-08-20T03:53:58.956Z,50.70
2022-08-20T03:56:27.028Z,50.80
2022-08-20T03:58:55.332Z,50.80
2022-08-20T04:01:45.030Z,50.80
2022-08-20T04:04:12.518Z,50.80
2022-08-20T04:06:42.407Z,51.00
2022-08-20T04:09:11.916Z,50.90
2022-08-20T04:11:40.407Z,50.90
2022-08-20T04:14:09.156Z,51.00
2022-08-20T04:16:37.752Z,51.00
2022-08-20T04:19:06.244Z,51.00
2022-08-20T04:21:34.772Z,51.00
2022-08-20T04:24:05.696Z,50.90
2022-08-20T04:26:36.298Z,51.00
2022-08-20T04:29:04.399Z,51.00
2022-08-20T04:31:34.169Z,51.00
2022-08-20T04:34:03.096Z,51.00
2022-08-20T04:36:31.141Z,51.00
2022-08-20T04:38:59.093Z,51.00
2022-08-20T04:41:28.447Z,51.00
2022-08-20T04:43:58.073Z,51.10
2022-08-20T04:46:27.502Z,51.10
2022-08-20T04:48:55.491Z,51.10
2022-08-20T04:51:24.386Z,51.70
2022-08-20T04:53:53.653Z,51.10
2022-08-20T04:56:24.283Z,51.10
2022-08-20T04:58:54.386Z,51.10
2022-08-20T05:01:23.667Z,51.10
2022-08-20T05:03:54.764Z,51.10
2022-08-20T05:06:24.645Z,51.10
2022-08-20T05:08:53.348Z,51.10
2022-08-20T05:11:32.903Z,51.00
2022-08-20T05:14:05.880Z,51.00
2022-08-20T05:16:38.638Z,51.10
2022-08-20T05:19:08.782Z,51.00
2022-08-20T05:21:37.145Z,51.00
2022-08-20T05:24:05.683Z,50.90
2022-08-20T05:26:34.325Z,51.00
2022-08-20T05:29:05.069Z,51.00
2022-08-20T05:31:34.877Z,50.90
2022-08-20T05:34:03.226Z,51.50
2022-08-20T05:36:31.213Z,50.80
2022-08-20T05:38:59.257Z,50.80
2022-08-20T05:41:30.067Z,50.80
2022-08-20T05:44:01.073Z,50.80
2022-08-20T05:46:29.134Z,50.80
2022-08-20T05:48:59.347Z,50.70
2022-08-20T05:51:27.861Z,50.70
2022-08-20T05:53:57.981Z,50.70
2022-08-20T05:56:30.387Z,50.70
2022-08-20T05:58:59.627Z,50.60
2022-08-20T06:01:27.664Z,50.60
2022-08-20T06:04:13.104Z,50.60
2022-08-20T06:06:45.762Z,50.60
2022-08-20T06:09:15.046Z,50.50
2022-08-20T06:11:42.962Z,50.60
2022-08-20T06:14:10.910Z,50.60
2022-08-20T06:16:38.850Z,50.50
2022-08-20T06:19:06.918Z,50.50
2022-08-20T06:21:39.811Z,50.30
2022-08-20T06:24:09.337Z,50.30
2022-08-20T06:26:37.696Z,50.20
2022-08-20T06:29:06.011Z,50.20
2022-08-20T06:31:34.966Z,50.10
2022-08-20T06:34:02.980Z,50.00
2022-08-20T06:36:30.936Z,49.90
2022-08-20T06:38:58.883Z,49.80
2022-08-20T06:41:36.267Z,49.70
2022-08-20T06:44:05.504Z,49.70
2022-08-20T06:46:33.649Z,49.60
2022-08-20T06:49:01.639Z,50.10
2022-08-20T06:51:29.582Z,49.40
2022-08-20T06:53:57.612Z,49.20
2022-08-20T06:56:26.962Z,49.00
2022-08-20T06:58:54.891Z,48.90
2022-08-20T07:01:22.914Z,48.80
2022-08-20T07:03:54.553Z,48.70
2022-08-20T07:06:25.641Z,49.20
2022-08-20T07:08:53.938Z,48.40
2022-08-20T07:11:27.296Z,48.30
2022-08-20T07:13:58.218Z,48.20
2022-08-20T07:16:26.445Z,48.10
2022-08-20T07:18:54.650Z,48.00
2022-08-20T07:21:22.583Z,47.90
2022-08-20T07:23:50.527Z,47.80
2022-08-20T07:26:18.567Z,47.60
2022-08-20T07:28:46.496Z,47.50
2022-08-20T07:31:34.877Z,47.40
2022-08-20T07:34:03.428Z,47.90
2022-08-20T07:36:31.535Z,47.10
2022-08-20T07:38:59.562Z,47.10
2022-08-20T07:41:34.261Z,47.00
2022-08-20T07:44:02.725Z,46.90
2022-08-20T07:46:32.685Z,46.90
2022-08-20T07:49:00.657Z,46.70
2022-08-20T07:51:28.672Z,46.70
2022-08-20T07:53:58.262Z,46.60
2022-08-20T07:56:27.957Z,46.50
2022-08-20T07:58:58.920Z,46.40
2022-08-20T08:01:29.661Z,46.20
2022-08-20T08:03:59.196Z,46.20
2022-08-20T08:06:29.741Z,46.10
2022-08-20T08:09:01.189Z,46.00
2022-08-20T08:11:29.799Z,45.80
2022-08-20T08:13:57.793Z,45.70
2022-08-20T08:16:25.751Z,45.50
2022-08-20T08:18:56.342Z,45.30
2022-08-20T08:21:27.101Z,45.20
2022-08-20T08:23:55.109Z,45.00
2022-08-20T08:26:23.063Z,44.80
2022-08-20T08:28:51.431Z,44.70
2022-08-20T08:31:19.391Z,44.50
2022-08-20T08:33:47.772Z,44.40
2022-08-20T08:36:16.563Z,44.30
2022-08-20T08:38:46.461Z,44.30
2022-08-20T08:41:18.391Z,44.10
2022-08-20T08:43:48.093Z,44.10
2022-08-20T08:46:19.280Z,43.90
2022-08-20T08:48:48.976Z,43.90
2022-08-20T08:51:17.744Z,43.90
2022-08-20T08:53:48.617Z,43.90
2022-08-20T08:56:16.560Z,43.80
2022-08-20T08:58:44.957Z,43.70
2022-08-20T09:01:53.220Z,43.60
2022-08-20T09:04:02.824Z,44.20
2022-08-20T09:06:30.803Z,43.40
2022-08-20T09:09:01.699Z,44.10
2022-08-20T09:11:29.913Z,43.40
2022-08-20T09:13:58.557Z,44.10
2022-08-20T09:16:28.082Z,43.30
2022-08-20T09:19:05.338Z,43.30
2022-08-20T09:21:33.318Z,43.30
2022-08-20T09:24:02.627Z,43.40
2022-08-20T09:26:30.585Z,43.30
2022-08-20T09:28:58.603Z,43.30
2022-08-20T09:31:27.132Z,43.30
2022-08-20T09:33:55.611Z,43.30
2022-08-20T09:36:25.636Z,43.30
2022-08-20T09:38:59.919Z,43.30
2022-08-20T09:41:29.317Z,43.20
2022-08-20T09:43:57.270Z,43.20
2022-08-20T09:46:27.189Z,43.10
2022-08-20T09:48:55.560Z,43.00
2022-08-20T09:51:25.067Z,42.90
2022-08-20T09:53:52.981Z,42.90
2022-08-20T09:56:20.957Z,42.80
2022-08-20T09:58:51.362Z,42.70
2022-08-20T10:01:20.058Z,42.70
2022-08-20T10:03:49.378Z,42.70
2022-08-20T10:06:18.062Z,43.40
2022-08-20T10:08:45.988Z,42.70
2022-08-20T10:11:14.070Z,43.40
2022-08-20T10:13:42.214Z,42.70
2022-08-20T10:16:11.564Z,42.70
2022-08-20T10:18:39.509Z,42.70
2022-08-20T10:21:10.634Z,42.70
2022-08-20T10:23:38.567Z,42.70
2022-08-20T10:26:07.887Z,42.70
2022-08-20T10:28:35.995Z,42.70
2022-08-20T10:31:04.691Z,42.70
2022-08-20T10:33:35.508Z,42.70
2022-08-20T10:36:07.623Z,42.60
2022-08-20T10:38:35.588Z,42.60
2022-08-20T10:41:03.631Z,42.60
2022-08-20T10:43:31.942Z,42.50
2022-08-20T10:46:00.187Z,42.40
2022-08-20T10:48:28.270Z,42.40
2022-08-20T10:50:57.555Z,42.30
2022-08-20T10:53:25.527Z,42.30
2022-08-20T10:55:54.101Z,42.20
2022-08-20T10:58:23.853Z,42.20
2022-08-20T11:00:51.899Z,42.10
2022-08-20T11:03:19.952Z,42.10
2022-08-20T11:05:48.037Z,42.20
2022-08-20T11:08:29.834Z,42.10
2022-08-20T11:11:02.495Z,42.10
2022-08-20T11:13:30.409Z,42.10
2022-08-20T11:15:58.349Z,42.10
2022-08-20T11:18:26.325Z,42.20
2022-08-20T11:20:54.328Z,42.20
2022-08-20T11:23:23.892Z,42.30
2022-08-20T11:25:51.809Z,42.80
2022-08-20T11:28:31.001Z,42.30
2022-08-20T11:31:00.247Z,42.30
2022-08-20T11:33:28.303Z,42.40
2022-08-20T11:35:56.249Z,42.50
2022-08-20T11:38:25.619Z,42.50
2022-08-20T11:40:53.567Z,42.50
2022-08-20T11:43:21.554Z,42.50
2022-08-20T11:45:50.806Z,42.60
2022-08-20T11:48:18.933Z,42.80
2022-08-20T11:50:46.991Z,42.90
2022-08-20T11:53:15.119Z,43.10
2022-08-20T11:55:44.558Z,43.10
2022-08-20T11:58:12.514Z,43.20
2022-08-20T12:00:40.457Z,43.30
2022-08-20T12:03:10.148Z,43.30
2022-08-20T12:05:38.534Z,43.40
2022-08-20T12:08:06.758Z,43.40
2022-08-20T12:10:37.103Z,43.50
2022-08-20T12:13:07.760Z,43.50
2022-08-20T12:15:36.372Z,43.50
2022-08-20T12:18:07.377Z,43.50
2022-08-20T12:20:35.337Z,43.60
2022-08-20T12:23:03.517Z,43.50
2022-08-20T12:25:31.553Z,43.50
2022-08-20T12:28:00.692Z,43.50
2022-08-20T12:30:31.066Z,43.60
2022-08-20T12:32:59.398Z,44.20
2022-08-20T12:35:27.785Z,43.50
2022-08-20T12:37:55.725Z,43.70
2022-08-20T12:40:32.223Z,43.60
2022-08-20T12:43:01.075Z,43.60
2022-08-20T12:45:30.403Z,43.70
2022-08-20T12:48:02.146Z,44.30
2022-08-20T12:50:31.846Z,43.60
2022-08-20T12:53:00.322Z,43.50
2022-08-20T12:55:28.306Z,44.20
2022-08-20T12:57:59.474Z,43.50
2022-08-20T13:00:30.958Z,43.60
2022-08-20T13:03:00.910Z,44.20
2022-08-20T13:05:29.007Z,43.60
2022-08-20T13:07:57.094Z,43.60
2022-08-20T13:10:26.265Z,43.60
2022-08-20T13:12:54.266Z,43.70
2022-08-20T13:15:22.325Z,43.60
2022-08-20T13:17:53.667Z,43.60
2022-08-20T13:20:21.867Z,43.60
2022-08-20T13:22:49.927Z,44.20
2022-08-20T13:25:18.129Z,43.50
2022-08-20T13:27:46.120Z,43.60
2022-08-20T13:30:16.136Z,43.60
2022-08-20T13:32:44.080Z,43.60
2022-08-20T13:35:13.541Z,43.50
2022-08-20T13:37:41.724Z,43.40
2022-08-20T13:40:11.312Z,43.40
2022-08-20T13:42:39.727Z,43.50
2022-08-20T13:45:09.220Z,43.40
2022-08-20T13:47:40.160Z,43.40
2022-08-20T13:50:15.178Z,43.40
2022-08-20T13:52:44.628Z,43.40
2022-08-20T13:55:15.824Z,43.30
2022-08-20T13:57:45.815Z,43.40
2022-08-20T14:00:15.429Z,43.40
2022-08-20T14:02:43.833Z,43.40
2022-08-20T14:05:12.092Z,43.40
2022-08-20T14:07:45.331Z,44.10
2022-08-20T14:10:14.998Z,43.40
2022-08-20T14:12:42.954Z,43.30
2022-08-20T14:15:11.957Z,43.30
2022-08-20T14:17:40.696Z,43.30
2022-08-20T14:20:10.804Z,43.30
2022-08-20T14:22:38.765Z,43.30
2022-08-20T14:25:09.071Z,43.30
2022-08-20T14:27:37.078Z,43.30
2022-08-20T14:30:05.803Z,43.30
2022-08-20T14:32:33.766Z,43.30
2022-08-20T14:35:02.228Z,43.30
2022-08-20T14:37:31.365Z,43.20
2022-08-20T14:40:00.752Z,43.20
2022-08-20T14:42:30.490Z,43.30
2022-08-20T14:44:58.737Z,43.20
2022-08-20T14:47:29.326Z,43.20
2022-08-20T14:49:59.592Z,43.90
2022-08-20T14:52:27.656Z,43.20
2022-08-20T14:54:56.408Z,43.90
2022-08-20T14:57:24.408Z,43.10
2022-08-20T14:59:54.874Z,43.10
2022-08-20T15:02:23.452Z,43.20
2022-08-20T15:04:52.270Z,43.20
2022-08-20T15:07:24.114Z,43.00
2022-08-20T15:09:52.291Z,43.10
2022-08-20T15:12:20.252Z,43.10
2022-08-20T15:14:49.104Z,43.10
2022-08-20T15:17:20.905Z,43.10
2022-08-20T15:19:48.846Z,43.00
2022-08-20T15:22:16.887Z,43.00
2022-08-20T15:24:45.084Z,43.00
2022-08-20T15:27:17.053Z,43.00
2022-08-20T15:29:47.165Z,42.90
2022-08-20T15:32:15.096Z,42.90
2022-08-20T15:34:44.434Z,42.90
2022-08-20T15:37:13.112Z,42.90
2022-08-20T15:39:41.590Z,42.90
2022-08-20T15:42:09.700Z,42.90
2022-08-20T15:44:37.824Z,42.90
2022-08-20T15:47:20.344Z,42.80
2022-08-20T15:49:50.000Z,42.80
2022-08-20T15:52:18.397Z,42.80
2022-08-20T15:54:46.649Z,42.80
2022-08-20T15:57:17.406Z,42.80
2022-08-20T15:59:53.501Z,42.80
2022-08-20T16:02:29.980Z,42.80
2022-08-20T16:05:06.199Z,42.90
2022-08-20T16:07:37.857Z,43.50
2022-08-20T16:10:11.721Z,42.80
2022-08-20T16:12:43.006Z,42.80
2022-08-20T16:15:12.445Z,42.80
2022-08-20T16:17:41.629Z,42.80
2022-08-20T16:20:12.832Z,42.80
2022-08-20T16:22:43.174Z,42.80
2022-08-20T16:25:11.535Z,42.90
2022-08-20T16:27:46.634Z,42.90
2022-08-20T16:30:21.484Z,42.80
2022-08-20T16:32:53.923Z,42.80
2022-08-20T16:35:30.508Z,43.00
2022-08-20T16:38:07.788Z,42.90
2022-08-20T16:40:39.495Z,42.90
2022-08-20T16:43:08.314Z,42.90
2022-08-20T16:45:38.996Z,42.90
2022-08-20T16:48:11.460Z,42.90
2022-08-20T16:50:47.224Z,43.00
2022-08-20T16:53:17.819Z,43.70
2022-08-20T16:55:45.775Z,43.00
2022-08-20T16:58:13.705Z,42.90
2022-08-20T17:00:45.175Z,42.90
2022-08-20T17:03:31.333Z,42.90
2022-08-20T17:06:16.295Z,42.90
2022-08-20T17:08:49.773Z,42.90
2022-08-20T17:11:24.008Z,42.90
2022-08-20T17:13:51.963Z,42.90
2022-08-20T17:16:20.891Z,42.80
2022-08-20T17:18:49.770Z,42.80
2022-08-20T17:21:23.380Z,42.80
2022-08-20T17:23:56.348Z,42.80
2022-08-20T17:26:26.071Z,42.70
2022-08-20T17:28:55.929Z,42.70
2022-08-20T17:31:42.708Z,42.70
2022-08-20T17:34:14.969Z,42.70
2022-08-20T17:36:54.450Z,43.40
2022-08-20T17:39:23.129Z,42.70
2022-08-20T17:41:52.608Z,42.70
2022-08-20T17:44:23.373Z,42.70
2022-08-20T17:46:51.607Z,42.70
2022-08-20T17:49:21.604Z,42.60
2022-08-20T17:51:53.136Z,42.60
2022-08-20T17:54:24.827Z,42.50
2022-08-20T17:56:55.464Z,42.60
2022-08-20T18:00:00.385Z,42.60
2022-08-20T18:02:15.133Z,42.50
2022-08-20T18:04:43.240Z,42.60
2022-08-20T18:07:16.067Z,43.30
2022-08-20T18:09:47.122Z,42.60
2022-08-20T18:12:21.773Z,42.60
2022-08-20T18:15:05.096Z,42.70
2022-08-20T18:18:03.241Z,42.70
2022-08-20T18:20:51.047Z,42.70
2022-08-20T18:23:22.930Z,43.40
2022-08-20T18:25:52.822Z,42.70
2022-08-20T18:28:23.042Z,42.80
2022-08-20T18:30:52.055Z,42.80
2022-08-20T18:33:29.518Z,42.80
2022-08-20T18:36:09.157Z,42.90
2022-08-20T18:38:41.844Z,42.90
2022-08-20T18:41:12.587Z,42.90
2022-08-20T18:43:41.796Z,42.90
2022-08-20T18:46:11.549Z,42.90
2022-08-20T18:48:39.504Z,42.90
2022-08-20T18:51:10.072Z,43.00
2022-08-20T18:53:41.179Z,43.00
2022-08-20T18:56:10.059Z,43.00
2022-08-20T18:58:39.450Z,43.00
2022-08-20T19:01:13.227Z,43.00
2022-08-20T19:03:45.077Z,43.00
2022-08-20T19:06:22.488Z,43.00
2022-08-20T19:08:54.056Z,43.10
2022-08-20T19:11:58.552Z,43.00
2022-08-20T19:14:37.032Z,43.10
2022-08-20T19:17:06.889Z,43.10
2022-08-20T19:19:35.493Z,43.10
2022-08-20T19:22:03.470Z,43.20
2022-08-20T19:24:38.691Z,43.20
2022-08-20T19:27:10.291Z,43.10
2022-08-20T19:29:40.342Z,43.00
2022-08-20T19:32:09.517Z,42.90
2022-08-20T19:34:37.851Z,42.90
2022-08-20T19:37:27.614Z,42.90
2022-08-20T19:39:56.447Z,43.50
2022-08-20T19:42:25.409Z,42.90
2022-08-20T19:44:55.431Z,42.90
2022-08-20T19:47:30.210Z,43.00
2022-08-20T19:50:02.415Z,43.00
2022-08-20T19:52:40.041Z,43.00
2022-08-20T19:55:17.134Z,43.00
2022-08-20T19:57:51.231Z,43.00
2022-08-20T20:00:19.186Z,43.00
2022-08-20T20:02:47.290Z,43.00
2022-08-20T20:05:15.251Z,43.10
2022-08-20T20:07:44.426Z,43.10
2022-08-20T20:10:32.269Z,43.20
2022-08-20T20:13:08.081Z,43.30
2022-08-20T20:15:36.098Z,43.30
2022-08-20T20:18:04.357Z,43.40
2022-08-20T20:20:33.554Z,43.40
2022-08-20T20:23:06.654Z,43.50
2022-08-20T20:25:41.497Z,43.50
2022-08-20T20:28:12.138Z,43.60
2022-08-20T20:30:40.473Z,43.50
2022-08-20T20:33:14.657Z,43.50
2022-08-20T20:35:42.802Z,43.50
2022-08-20T20:38:11.685Z,43.70
2022-08-20T20:40:46.454Z,43.70
2022-08-20T20:43:24.354Z,43.70
2022-08-20T20:45:59.394Z,43.80
2022-08-20T20:48:34.009Z,43.90
2022-08-20T20:51:02.269Z,43.90
2022-08-20T20:53:53.149Z,43.90
2022-08-20T20:56:34.573Z,44.60
2022-08-20T20:59:06.476Z,44.00
2022-08-20T21:01:48.846Z,44.00
2022-08-20T21:04:19.797Z,44.10
2022-08-20T21:06:47.768Z,44.20
2022-08-20T21:09:15.731Z,44.90
2022-08-20T21:11:45.060Z,44.30
2022-08-20T21:14:13.081Z,44.30
2022-08-20T21:16:41.012Z,44.30
2022-08-20T21:19:09.969Z,44.30
2022-08-20T21:21:38.172Z,44.40
2022-08-20T21:24:07.292Z,44.40
2022-08-20T21:26:35.324Z,44.50
2022-08-20T21:29:05.115Z,44.50
2022-08-20T21:31:34.336Z,44.70
2022-08-20T21:34:02.311Z,44.70
2022-08-20T21:36:30.326Z,44.70
2022-08-20T21:38:58.349Z,45.40
2022-08-20T21:41:29.773Z,44.80
2022-08-20T21:43:58.597Z,44.80
2022-08-20T21:46:28.775Z,44.90
2022-08-20T21:48:56.957Z,45.60
2022-08-20T21:51:24.964Z,45.10
2022-08-20T21:53:53.050Z,45.10
2022-08-20T21:56:22.483Z,45.30
2022-08-20T21:58:50.615Z,45.20
2022-08-20T22:01:21.177Z,45.20
2022-08-20T22:03:51.918Z,45.30
2022-08-20T22:06:20.080Z,45.30
2022-08-20T22:08:48.033Z,45.30
2022-08-20T22:11:15.968Z,45.40
2022-08-20T22:13:43.964Z,45.40
2022-08-20T22:16:12.690Z,45.40
2022-08-20T22:18:40.600Z,45.50
2022-08-20T22:21:12.260Z,45.50
2022-08-20T22:23:40.496Z,45.60
2022-08-20T22:26:08.611Z,45.60
2022-08-20T22:28:36.669Z,45.70
2022-08-20T22:31:04.786Z,45.70
2022-08-20T22:33:32.955Z,45.70
2022-08-20T22:36:01.143Z,45.70
2022-08-20T22:38:30.608Z,45.80
2022-08-20T22:40:58.558Z,45.80
2022-08-20T22:43:26.515Z,45.90
2022-08-20T22:46:00.429Z,45.90
2022-08-20T22:48:28.465Z,46.00
2022-08-20T22:50:57.005Z,46.00
2022-08-20T22:53:25.594Z,45.90
2022-08-20T22:55:54.959Z,46.00
2022-08-20T22:58:30.427Z,46.00
2022-08-20T23:00:59.686Z,46.00
2022-08-20T23:03:39.675Z,46.10
2022-08-20T23:06:08.427Z,46.80
2022-08-20T23:08:36.611Z,46.80
2022-08-20T23:11:06.103Z,46.10
2022-08-20T23:13:34.075Z,46.20
2022-08-20T23:16:02.022Z,46.30
2022-08-20T23:18:30.015Z,46.30
2022-08-20T23:20:59.033Z,46.30
2022-08-20T23:23:27.152Z,46.30
2022-08-20T23:25:55.250Z,46.30
2022-08-20T23:28:25.159Z,46.40
2022-08-20T23:30:53.220Z,47.00
2022-08-20T23:33:21.260Z,47.10
2022-08-20T23:35:49.263Z,46.40
2022-08-20T23:38:17.274Z,46.50
2022-08-20T23:40:45.220Z,46.40
2022-08-20T23:43:13.174Z,46.50
2022-08-20T23:45:43.547Z,46.50
2022-08-20T23:48:11.655Z,46.50
2022-08-20T23:50:39.615Z,46.50
2022-08-20T23:53:07.550Z,47.20
2022-08-20T23:55:35.740Z,46.60
2022-08-20T23:58:03.671Z,47.10
